Elk Garden, Virginia
Current Conditions -  °F | °C
As of 2:15 PM on Thursday 30 Oct 2014 (Local Time) from KJFZ Reporting Station
Scattered Clouds Scattered Clouds  
Wind Chill: 52°   Ceiling: Unl
Heat Index: 52°   Visibility: 10mi
Dew Point: 37°   Wind: 0mph
Humidity: 56%   Direction: NA
Pressure: 30.06"   Gusts: NA
Location:  37.0328°N, 82.0042°W
Report Text: KJFZ 301815Z AUTO 00000KT 10SM SCT028 11/03 A3006 RMK AO2 T01090025
Loading
Personal Weather Stations






























Interactive Weather Map
Tropical Storm Tracking
New forecast layout! Learn more

10-Day Weather Forecast

Advertisements
Track Severe Weather on mobile